Sevierville, TN (37876)

11:15 PM EST on February 05, 2016 (GMT -0500)
Murphy Rd | | Change Station
CLOSE
Current Station
Personal Weather Station
Location: Sevierville, TN
Elevation: 958 ft
Nearby Weather Stations

Elev 958 ft 35.85 °N, 83.57 °W | Updated 41 seconds ago

Mostly Cloudy
Mostly Cloudy
28.0 °F
Feels Like 28 °F
N
0.0
Wind Variable Wind from South

Today
High -- | Low -- °F
--% Chance of Precip.
Yesterday
High -- | Low -- °F
Precip. -- in
Pressure 30.40 in
Visibility 10.0 miles
Clouds Mostly Cloudy 25000 ft
Windchill 28 °F
Dew Point 23 °F
Humidity 81%
Rainfall 0.00 in
Snow Depth Not available.
7:31 AM 6:05 PM
Waning Crescent, 7% visible
METAR KTYS 060353Z 02003KT 10SM BKN250 00/M07 A3038 RMK AO2 SLP293 T00001067
Pressure 30.40 in
Visibility 10.0 miles
Clouds Mostly Cloudy 25000 ft
Windchill 28 °F
Dew Point 23 °F
Humidity 81%
Rainfall 0.00 in
Snow Depth Not available.
7:31 AM 6:05 PM
Waning Crescent, 7% visible
METAR KTYS 060353Z 02003KT 10SM BKN250 00/M07 A3038 RMK AO2 SLP293 T00001067

10-Day Weather Forecast

Almanac

Astronomy

Feb. 05, 2016 Rise Set
Actual Time
Civil Twilight
Nautical Twilight
Astronomical Twilight
Moon
Length of Visible Light
Length of Day
Tomorrow will be .
, % of the Moon is Illuminated

Today's Extremes

State Highs State Lows

Community

WunderPhotos

Upload Photos

1,890,917 photos uploaded!

WunderBlog® & News

Nearby

Air Quality

  Air Quality AQ Index Pollutant
Not available.

Snow Depth

Station Depth Elevation

Earthquake Activity

City Distance Mag. Time & Date
Minimum magnitude displayed is 2.5.

Coastal Water Temperatures

Place Temperature

Stations

Nearby Weather Stations

Station Location Temp. Windchill Dew Point Humidity Wind Precip. Elev Updated Type
                   

Watches & Warnings

There are currently no watches in effect.